createdAt,value
2017-09-28T04:00:37.863Z,9.20
2017-09-28T04:03:05.413Z,9.87
2017-09-28T04:05:33.093Z,9.20
2017-09-28T04:08:01.357Z,9.47
2017-09-28T04:10:29.613Z,9.90
2017-09-28T04:12:57.603Z,9.47
2017-09-28T04:15:25.911Z,8.17
2017-09-28T04:17:53.646Z,10.23
2017-09-28T04:20:21.296Z,13.80
2017-09-28T04:22:48.853Z,8.30
2017-09-28T04:25:18.716Z,8.57
2017-09-28T04:27:47.008Z,8.60
2017-09-28T04:30:16.990Z,7.83
2017-09-28T04:32:47.506Z,9.03
2017-09-28T04:38:06.669Z,8.97
2017-09-28T04:40:34.255Z,7.93
2017-09-28T04:43:02.581Z,9.00
2017-09-28T04:45:30.149Z,9.83
2017-09-28T04:47:58.448Z,9.03
2017-09-28T04:50:26.184Z,8.93
2017-09-28T04:52:53.735Z,9.47
2017-09-28T04:55:21.272Z,9.93
2017-09-28T04:57:49.581Z,9.67
2017-09-28T05:00:17.092Z,9.73
2017-09-28T05:02:44.657Z,9.40
2017-09-28T05:05:12.940Z,8.33
2017-09-28T05:07:41.223Z,9.97
2017-09-28T05:10:09.523Z,9.20
2017-09-28T05:12:37.033Z,9.40
2017-09-28T05:15:04.592Z,8.60
2017-09-28T05:17:32.100Z,9.20
2017-09-28T05:19:59.633Z,8.40
2017-09-28T05:22:27.183Z,7.73
2017-09-28T05:24:54.695Z,9.20
2017-09-28T05:27:22.247Z,8.00
2017-09-28T05:29:49.759Z,9.70
2017-09-28T05:32:17.284Z,10.27
2017-09-28T05:34:44.830Z,8.47
2017-09-28T05:37:12.415Z,9.40
2017-09-28T05:39:39.952Z,8.47
2017-09-28T05:42:07.491Z,9.83
2017-09-28T05:44:35.803Z,8.90
2017-09-28T05:47:03.313Z,8.10
2017-09-28T05:49:31.631Z,8.57
2017-09-28T05:51:59.145Z,8.23
2017-09-28T05:54:26.688Z,8.60
2017-09-28T05:56:54.215Z,8.30
2017-09-28T05:59:21.784Z,7.70
2017-09-28T06:01:49.327Z,8.40
2017-09-28T06:04:16.841Z,8.43
2017-09-28T06:06:44.371Z,8.47
2017-09-28T06:09:12.723Z,8.33
2017-09-28T06:11:40.273Z,8.10
2017-09-28T06:14:07.777Z,8.53
2017-09-28T06:16:36.303Z,8.67
2017-09-28T06:19:04.728Z,8.17
2017-09-28T06:21:32.267Z,8.47
2017-09-28T06:23:59.834Z,8.07
2017-09-28T06:26:27.365Z,8.30
2017-09-28T06:28:55.679Z,8.00
2017-09-28T06:31:23.219Z,7.53
2017-09-28T06:33:50.778Z,7.00
2017-09-28T06:36:18.342Z,7.00
2017-09-28T06:38:45.967Z,6.63
2017-09-28T06:41:13.700Z,6.13
2017-09-28T06:43:41.270Z,6.60
2017-09-28T06:46:08.779Z,7.30
2017-09-28T06:48:37.051Z,6.83
2017-09-28T06:51:06.548Z,6.70
2017-09-28T06:53:34.928Z,8.03
2017-09-28T06:56:03.274Z,7.77
2017-09-28T06:58:30.872Z,9.63
2017-09-28T07:00:59.172Z,6.63
2017-09-28T07:03:26.735Z,7.53
2017-09-28T07:05:54.299Z,7.43
2017-09-28T07:08:21.831Z,7.10
2017-09-28T07:10:50.102Z,6.63
2017-09-28T07:13:17.639Z,7.10
2017-09-28T07:15:45.331Z,6.10
2017-09-28T07:18:13.650Z,6.90
2017-09-28T07:20:41.159Z,6.33
2017-09-28T07:23:08.899Z,6.37
2017-09-28T07:25:36.460Z,6.83
2017-09-28T07:28:03.977Z,7.40
2017-09-28T07:30:31.741Z,7.00
2017-09-28T07:32:59.356Z,7.23
2017-09-28T07:35:26.875Z,6.37
2017-09-28T07:37:54.389Z,7.20
2017-09-28T07:40:21.934Z,6.50
2017-09-28T07:42:49.648Z,6.20
2017-09-28T07:45:17.260Z,7.47
2017-09-28T07:47:44.955Z,6.40
2017-09-28T07:50:13.259Z,6.33
2017-09-28T07:52:40.775Z,5.90
2017-09-28T07:55:08.321Z,6.70
2017-09-28T07:57:35.833Z,6.30
2017-09-28T08:00:03.391Z,7.60
2017-09-28T08:02:30.957Z,7.10
2017-09-28T08:04:58.616Z,6.17
2017-09-28T08:07:26.263Z,7.00
2017-09-28T08:09:54.574Z,5.90
2017-09-28T08:12:22.120Z,5.80
2017-09-28T08:14:49.843Z,6.80
2017-09-28T08:17:17.377Z,6.83
2017-09-28T08:19:45.033Z,6.27
2017-09-28T08:22:12.608Z,6.30
2017-09-28T08:24:40.124Z,6.60
2017-09-28T08:27:07.647Z,6.10
2017-09-28T08:29:35.191Z,6.00
2017-09-28T08:32:02.802Z,6.33
2017-09-28T08:34:30.309Z,6.40
2017-09-28T08:36:57.858Z,5.80
2017-09-28T08:39:25.412Z,5.60
2017-09-28T08:41:52.932Z,6.33
2017-09-28T08:44:21.247Z,5.50
2017-09-28T08:46:48.952Z,5.53
2017-09-28T08:49:16.524Z,5.87
2017-09-28T08:51:44.840Z,6.03
2017-09-28T08:54:12.352Z,6.70
2017-09-28T08:56:39.866Z,5.80
2017-09-28T08:59:07.550Z,6.50
2017-09-28T09:01:35.257Z,7.00
2017-09-28T09:04:03.534Z,5.87
2017-09-28T09:06:31.975Z,5.80
2017-09-28T09:08:59.489Z,5.10
2017-09-28T09:11:27.300Z,5.43
2017-09-28T09:13:55.201Z,5.43
2017-09-28T09:16:23.560Z,5.00
2017-09-28T09:18:52.035Z,5.60
2017-09-28T09:21:19.551Z,5.50
2017-09-28T09:23:47.112Z,6.20
2017-09-28T09:26:14.652Z,6.20
2017-09-28T09:28:42.167Z,5.80
2017-09-28T09:31:09.758Z,6.20
2017-09-28T09:33:37.273Z,5.83
2017-09-28T09:36:05.096Z,5.20
2017-09-28T09:38:33.416Z,5.60
2017-09-28T09:41:00.932Z,5.53
2017-09-28T09:43:29.397Z,5.07
2017-09-28T09:45:57.800Z,5.40
2017-09-28T09:48:26.112Z,5.57
2017-09-28T09:50:53.647Z,7.27
2017-09-28T09:53:21.351Z,4.80
2017-09-28T09:55:48.885Z,5.33
2017-09-28T09:58:16.478Z,5.07
2017-09-28T10:00:44.139Z,5.10
2017-09-28T10:03:11.656Z,4.23
2017-09-28T10:05:39.169Z,4.90
2017-09-28T10:08:12.076Z,5.10
2017-09-28T10:10:54.691Z,4.50
2017-09-28T10:13:23.637Z,4.07
2017-09-28T10:15:54.622Z,4.50
2017-09-28T10:18:22.167Z,4.07
2017-09-28T10:20:49.759Z,4.07
2017-09-28T10:23:18.176Z,3.60
2017-09-28T10:25:45.693Z,4.77
2017-09-28T10:28:13.999Z,4.40
2017-09-28T10:30:41.544Z,4.13
2017-09-28T10:33:09.950Z,4.13
2017-09-28T10:35:37.568Z,5.03
2017-09-28T10:38:05.384Z,4.40
2017-09-28T10:40:33.013Z,4.20
2017-09-28T10:43:01.364Z,4.10
2017-09-28T10:45:28.891Z,4.10
2017-09-28T10:47:56.423Z,4.00
2017-09-28T10:50:24.103Z,3.60
2017-09-28T10:52:51.635Z,4.07
2017-09-28T10:55:19.947Z,4.60
2017-09-28T10:57:47.611Z,4.67
2017-09-28T11:00:15.179Z,3.70
2017-09-28T11:02:42.695Z,3.87
2017-09-28T11:05:10.988Z,3.50
2017-09-28T11:07:38.605Z,3.73
2017-09-28T11:10:06.164Z,4.07
2017-09-28T11:12:33.722Z,3.77
2017-09-28T11:15:01.237Z,3.43
2017-09-28T11:17:28.752Z,4.10
2017-09-28T11:19:56.306Z,3.47
2017-09-28T11:22:23.832Z,3.13
2017-09-28T11:24:51.444Z,3.70
2017-09-28T11:27:18.972Z,4.30
2017-09-28T11:29:46.484Z,3.30
2017-09-28T11:32:14.252Z,3.20
2017-09-28T11:34:41.803Z,3.03
2017-09-28T11:37:10.087Z,2.90
2017-09-28T11:39:37.620Z,3.17
2017-09-28T11:42:05.228Z,3.27
2017-09-28T11:44:32.782Z,3.10
2017-09-28T11:47:00.295Z,3.37
2017-09-28T11:49:27.823Z,3.40
2017-09-28T11:51:55.580Z,2.90
2017-09-28T11:54:23.194Z,3.70
2017-09-28T11:56:50.879Z,3.50
2017-09-28T11:59:18.400Z,3.30
2017-09-28T12:01:45.943Z,2.90
2017-09-28T12:04:13.487Z,2.90
2017-09-28T12:06:41.010Z,4.13
2017-09-28T12:09:09.427Z,3.27
2017-09-28T12:11:36.976Z,2.80
2017-09-28T12:14:04.564Z,4.30
2017-09-28T12:16:32.147Z,3.47
2017-09-28T12:18:59.713Z,3.10
2017-09-28T12:21:27.233Z,3.80
2017-09-28T12:23:54.745Z,3.37
2017-09-28T12:26:23.048Z,3.77
2017-09-28T12:28:50.562Z,3.63
2017-09-28T12:31:18.101Z,3.07
2017-09-28T12:33:45.612Z,3.37
2017-09-28T12:36:13.906Z,3.97
2017-09-28T12:38:41.453Z,3.67
2017-09-28T12:41:09.875Z,3.43
2017-09-28T12:43:37.386Z,3.63
2017-09-28T12:46:05.959Z,3.47
2017-09-28T12:48:33.472Z,3.47
2017-09-28T12:51:01.147Z,3.13
2017-09-28T12:53:28.651Z,3.23
2017-09-28T12:55:56.959Z,3.37
2017-09-28T12:58:24.484Z,4.00
2017-09-28T13:00:52.089Z,3.20
2017-09-28T13:03:19.620Z,2.97
2017-09-28T13:05:48.195Z,3.80
2017-09-28T13:08:16.533Z,3.30
2017-09-28T13:10:44.043Z,3.67
2017-09-28T13:13:12.495Z,2.90
2017-09-28T13:15:40.027Z,4.00
2017-09-28T13:18:07.631Z,3.70
2017-09-28T13:20:36.008Z,3.77
2017-09-28T13:23:03.680Z,4.17
2017-09-28T13:25:31.957Z,3.50
2017-09-28T13:28:00.265Z,3.23
2017-09-28T13:30:27.803Z,4.63
2017-09-28T13:32:55.364Z,3.30
2017-09-28T13:35:23.095Z,5.50
2017-09-28T13:37:50.612Z,4.13
2017-09-28T13:40:18.146Z,3.30
2017-09-28T13:42:46.543Z,3.93
2017-09-28T13:45:14.165Z,3.33
2017-09-28T13:47:41.978Z,3.50
2017-09-28T13:50:09.511Z,3.90
2017-09-28T13:52:37.855Z,3.67
2017-09-28T13:55:05.489Z,3.03
2017-09-28T13:57:33.058Z,3.93
2017-09-28T14:00:00.605Z,4.07
2017-09-28T14:02:28.124Z,4.47
2017-09-28T14:04:55.787Z,4.53
2017-09-28T14:07:23.397Z,4.23
2017-09-28T14:09:50.987Z,5.10
2017-09-28T14:12:18.637Z,3.90
2017-09-28T14:14:46.165Z,3.97
2017-09-28T14:17:13.679Z,4.13
2017-09-28T14:19:41.401Z,4.00
2017-09-28T14:22:08.911Z,4.20
2017-09-28T14:24:36.428Z,5.33
2017-09-28T14:27:03.959Z,4.70
2017-09-28T14:29:31.524Z,4.10
2017-09-28T14:31:59.052Z,4.67
2017-09-28T14:34:26.560Z,7.23
2017-09-28T14:36:54.115Z,3.60
2017-09-28T14:39:21.660Z,4.27
2017-09-28T14:41:49.199Z,3.50
2017-09-28T14:44:17.551Z,4.40
2017-09-28T14:46:45.272Z,3.20
2017-09-28T14:49:12.849Z,3.97
2017-09-28T14:51:40.408Z,3.57
2017-09-28T14:54:07.936Z,3.60
2017-09-28T14:56:36.427Z,3.80
2017-09-28T14:59:04.732Z,4.37
2017-09-28T15:01:32.299Z,4.27
2017-09-28T15:04:05.520Z,4.60
2017-09-28T15:06:33.130Z,3.93
2017-09-28T15:09:00.671Z,3.87
2017-09-28T15:11:28.980Z,4.20
2017-09-28T15:13:56.556Z,3.60
2017-09-28T15:16:24.183Z,3.93
2017-09-28T15:18:51.764Z,4.20
2017-09-28T15:21:19.296Z,3.80
2017-09-28T15:23:47.740Z,4.17
2017-09-28T15:26:15.382Z,3.63
2017-09-28T15:28:43.184Z,4.10
2017-09-28T15:31:10.760Z,4.30
2017-09-28T15:33:38.405Z,5.30
2017-09-28T15:36:05.920Z,4.50
2017-09-28T15:38:33.441Z,4.70
2017-09-28T15:41:01.772Z,4.30
2017-09-28T15:43:29.628Z,4.70
2017-09-28T15:45:57.157Z,3.97
2017-09-28T15:48:25.575Z,3.97
2017-09-28T15:50:53.128Z,4.20
2017-09-28T15:53:20.643Z,4.27
2017-09-28T15:55:48.959Z,4.43
2017-09-28T15:58:16.468Z,3.90
2017-09-28T16:00:44.035Z,5.87
2017-09-28T16:03:11.576Z,3.90
2017-09-28T16:05:39.188Z,4.53
2017-09-28T16:08:06.747Z,4.70
2017-09-28T16:10:34.319Z,5.70
2017-09-28T16:13:01.879Z,4.50
2017-09-28T16:15:29.491Z,4.60
2017-09-28T16:17:57.044Z,4.33
2017-09-28T16:20:24.605Z,5.80
2017-09-28T16:22:52.153Z,6.03
2017-09-28T16:25:19.676Z,4.60
2017-09-28T16:27:47.363Z,4.80
2017-09-28T16:30:15.047Z,4.70
2017-09-28T16:32:42.555Z,4.70
2017-09-28T16:35:10.124Z,5.10
2017-09-28T16:37:37.669Z,4.20
2017-09-28T16:40:05.194Z,4.93
2017-09-28T16:42:32.715Z,5.00
2017-09-28T16:45:00.327Z,5.07
2017-09-28T16:47:27.909Z,4.90
2017-09-28T16:49:55.696Z,6.20
2017-09-28T16:52:23.208Z,6.80
2017-09-28T16:54:50.719Z,6.60
2017-09-28T16:57:18.251Z,7.53
2017-09-28T16:59:46.519Z,6.83
2017-09-28T17:02:14.833Z,7.63
2017-09-28T17:04:42.344Z,8.07
2017-09-28T17:07:09.881Z,7.37
2017-09-28T17:09:37.425Z,8.60
2017-09-28T17:12:05.107Z,6.27
2017-09-28T17:14:32.706Z,6.53
2017-09-28T17:17:00.277Z,6.90
2017-09-28T17:19:28.597Z,6.00
2017-09-28T17:21:56.104Z,6.03
2017-09-28T17:24:24.391Z,5.57
2017-09-28T17:26:52.677Z,5.50
2017-09-28T17:29:20.221Z,6.13
2017-09-28T17:31:48.500Z,5.80
2017-09-28T17:34:16.055Z,6.90
2017-09-28T17:36:43.608Z,6.63
2017-09-28T17:39:11.115Z,6.07
2017-09-28T17:41:38.675Z,7.30
2017-09-28T17:44:06.229Z,7.77
2017-09-28T17:46:33.767Z,9.23
2017-09-28T17:49:02.042Z,9.57
2017-09-28T17:51:30.344Z,7.17
2017-09-28T17:53:57.862Z,6.03
2017-09-28T17:56:25.388Z,6.17
2017-09-28T17:58:52.896Z,6.80
2017-09-28T18:01:21.214Z,6.67
2017-09-28T18:03:48.762Z,6.50
2017-09-28T18:06:16.306Z,8.00
2017-09-28T18:08:44.584Z,8.53
2017-09-28T18:11:12.904Z,7.17
2017-09-28T18:13:40.416Z,7.23
2017-09-28T18:16:08.693Z,6.90
2017-09-28T18:18:37.063Z,7.13
2017-09-28T18:21:05.344Z,6.67
2017-09-28T18:23:33.629Z,7.13
2017-09-28T18:26:01.360Z,7.43
2017-09-28T18:28:28.885Z,6.90
2017-09-28T18:30:56.435Z,6.57
2017-09-28T18:33:23.943Z,7.70
2017-09-28T18:35:51.488Z,6.43
2017-09-28T18:38:19.004Z,7.03
2017-09-28T18:40:46.552Z,8.33
2017-09-28T18:43:14.835Z,7.83
2017-09-28T18:45:43.152Z,7.00
2017-09-28T18:48:10.707Z,7.87
2017-09-28T18:50:38.253Z,8.00
2017-09-28T18:53:05.848Z,8.47
2017-09-28T18:55:33.511Z,7.93
2017-09-28T18:58:01.022Z,8.37
2017-09-28T19:00:28.537Z,8.10
2017-09-28T19:02:56.063Z,7.70
2017-09-28T19:05:23.619Z,7.67
2017-09-28T19:07:51.130Z,7.83
2017-09-28T19:10:18.684Z,7.77
2017-09-28T19:12:46.223Z,7.00
2017-09-28T19:15:13.732Z,8.37
2017-09-28T19:17:41.352Z,8.93
2017-09-28T19:20:08.922Z,9.93
2017-09-28T19:22:36.449Z,9.30
2017-09-28T19:25:04.011Z,8.80
2017-09-28T19:27:31.536Z,8.87
2017-09-28T19:29:59.835Z,8.93
2017-09-28T19:32:27.400Z,8.80
2017-09-28T19:34:54.924Z,8.90
2017-09-28T19:37:23.207Z,8.53
2017-09-28T19:39:51.513Z,8.70
2017-09-28T19:42:19.038Z,8.60
2017-09-28T19:44:47.313Z,8.70
2017-09-28T19:47:14.862Z,9.43
2017-09-28T19:49:42.552Z,10.30
2017-09-28T19:52:10.843Z,9.87
2017-09-28T19:54:38.468Z,11.33
2017-09-28T19:57:06.007Z,10.03
2017-09-28T19:59:33.583Z,10.40
2017-09-28T20:02:01.189Z,9.17
2017-09-28T20:04:28.794Z,10.33
2017-09-28T20:06:56.305Z,9.90
2017-09-28T20:09:23.856Z,9.80
2017-09-28T20:11:52.126Z,9.40
2017-09-28T20:14:20.399Z,9.67
2017-09-28T20:16:48.721Z,9.73
2017-09-28T20:19:16.443Z,9.37
2017-09-28T20:21:44.736Z,10.03
2017-09-28T20:24:12.244Z,9.20
2017-09-28T20:26:39.799Z,10.10
2017-09-28T20:29:07.364Z,10.17
2017-09-28T20:31:35.028Z,11.50
2017-09-28T20:34:02.561Z,10.00
2017-09-28T20:36:30.144Z,10.37
2017-09-28T20:38:57.666Z,11.30
2017-09-28T20:41:25.238Z,12.63
2017-09-28T20:43:52.792Z,12.43
2017-09-28T20:46:21.211Z,12.80
2017-09-28T20:48:49.607Z,12.07
2017-09-28T20:51:17.304Z,11.70
2017-09-28T20:53:44.864Z,11.27
2017-09-28T20:56:12.440Z,11.20
2017-09-28T20:58:39.953Z,11.57
2017-09-28T21:01:07.487Z,10.93
2017-09-28T21:03:35.053Z,11.67
2017-09-28T21:06:02.619Z,10.80
2017-09-28T21:08:30.156Z,11.50
2017-09-28T21:10:57.708Z,12.30
2017-09-28T21:13:25.236Z,12.70
2017-09-28T21:15:53.559Z,13.13
2017-09-28T21:18:21.143Z,11.77
2017-09-28T21:20:48.679Z,11.23
2017-09-28T21:23:16.283Z,11.90
2017-09-28T21:25:43.835Z,10.97
2017-09-28T21:28:11.434Z,11.90
2017-09-28T21:30:39.717Z,11.70
2017-09-28T21:33:07.267Z,12.10
2017-09-28T21:35:35.561Z,12.27
2017-09-28T21:38:03.114Z,11.53
2017-09-28T21:40:30.636Z,10.60
2017-09-28T21:42:58.372Z,11.07
2017-09-28T21:45:25.990Z,11.37
2017-09-28T21:47:53.548Z,10.87
2017-09-28T21:50:21.859Z,11.23
2017-09-28T21:52:49.374Z,11.77
